Time;durP1;ratioP1;P1;durP2;ratioP2;P2;SDS_P1;SDS_P2;PMS_P1;PMS_P2;Temp;Humidity;BMP_temperature;BMP_pressure;BME280_temperature;BME280_humidity;BME280_pressure;Samples;Min_cycle;Max_cycle;Signal;HPM_P1;HPM_P2
2021/08/22 00:00:39;;;;;;;7.40;6.60;;;19.80;99.90;;;;;;5000314;28;20175;-83
2021/08/22 00:03:05;;;;;;;7.37;6.60;;;19.70;99.90;;;;;;4982784;28;20176;-82
2021/08/22 00:05:31;;;;;;;8.77;7.37;;;19.60;99.90;;;;;;5000380;28;20168;-82
2021/08/22 00:07:56;;;;;;;7.73;7.03;;;19.50;99.90;;;;;;5000163;28;20227;-82
2021/08/22 00:10:22;;;;;;;9.43;7.10;;;19.40;99.90;;;;;;4982088;28;20172;-83
2021/08/22 00:12:48;;;;;;;9.27;7.40;;;19.50;99.90;;;;;;4999937;28;20222;-82
2021/08/22 00:15:14;;;;;;;8.93;8.00;;;19.70;99.90;;;;;;4999789;28;20643;-82
2021/08/22 00:17:40;;;;;;;9.63;8.50;;;19.70;99.90;;;;;;5000375;28;20639;-82
2021/08/22 00:20:07;;;;;;;8.53;7.73;;;19.60;99.90;;;;;;4981841;28;20182;-82
2021/08/22 00:22:32;;;;;;;9.37;8.57;;;19.70;99.90;;;;;;4982079;28;20175;-82
2021/08/22 00:24:58;;;;;;;8.80;8.00;;;19.80;99.90;;;;;;4981999;28;20180;-82
2021/08/22 00:27:24;;;;;;;9.30;8.30;;;19.90;99.90;;;;;;4981906;28;20274;-83
2021/08/22 00:29:49;;;;;;;10.20;9.20;;;20.00;99.90;;;;;;5003327;23;20295;-80
2021/08/22 00:32:15;;;;;;;9.70;8.90;;;20.10;99.90;;;;;;4981704;28;20169;-79
2021/08/22 00:34:41;;;;;;;9.77;8.97;;;20.20;99.90;;;;;;4981115;28;20175;-80
2021/08/22 00:37:07;;;;;;;9.50;8.63;;;20.20;99.90;;;;;;4980629;28;20180;-79
2021/08/22 00:39:33;;;;;;;9.80;8.90;;;20.30;99.90;;;;;;4980812;28;20195;-79
2021/08/22 00:42:01;;;;;;;8.63;7.93;;;20.30;99.90;;;;;;4963693;28;20172;-79
2021/08/22 00:44:27;;;;;;;9.20;8.20;;;20.30;99.90;;;;;;4981328;28;20251;-80
2021/08/22 00:46:57;;;;;;;8.07;7.27;;;20.30;99.90;;;;;;4979858;28;20203;-80
2021/08/22 00:49:27;;;;;;;9.03;8.17;;;20.30;99.90;;;;;;4980735;28;20283;-80
2021/08/22 00:51:53;;;;;;;8.73;8.07;;;20.30;99.90;;;;;;4963206;28;20172;-80
2021/08/22 00:54:19;;;;;;;8.67;7.80;;;20.30;99.90;;;;;;4980540;28;20196;-80
2021/08/22 00:56:44;;;;;;;8.90;7.67;;;20.30;99.90;;;;;;4980936;28;20176;-80
2021/08/22 00:59:13;;;;;;;7.87;7.17;;;20.30;99.90;;;;;;4980082;28;20243;-81
2021/08/22 01:01:40;;;;;;;7.07;6.47;;;20.30;99.90;;;;;;4980150;28;20322;-80
2021/08/22 01:04:16;;;;;;;7.27;6.67;;;20.10;99.90;;;;;;4980589;28;20172;-80
2021/08/22 01:07:03;;;;;;;6.90;6.30;;;20.20;99.90;;;;;;4962717;28;20172;-80
2021/08/22 01:09:38;;;;;;;7.40;5.87;;;20.30;99.90;;;;;;4983602;28;20559;-80
2021/08/22 01:12:09;;;;;;;7.53;6.93;;;20.20;99.90;;;;;;4983598;28;20229;-80
2021/08/22 01:14:39;;;;;;;7.80;7.10;;;20.30;99.90;;;;;;4982843;28;20216;-80
2021/08/22 01:17:05;;;;;;;7.67;6.93;;;20.30;99.90;;;;;;4983133;28;20204;-80
2021/08/22 01:19:34;;;;;;;7.07;6.37;;;20.10;99.90;;;;;;4981816;28;20200;-80
2021/08/22 01:22:02;;;;;;;7.37;6.67;;;20.00;99.90;;;;;;4981992;28;20172;-80
2021/08/22 01:24:30;;;;;;;7.90;7.30;;;20.00;99.90;;;;;;4982220;28;20176;-80
2021/08/22 01:26:59;;;;;;;7.43;6.60;;;19.90;99.90;;;;;;4982097;28;20181;-80
2021/08/22 01:29:29;;;;;;;7.37;6.73;;;19.90;99.90;;;;;;4964634;28;20219;-80
2021/08/22 01:32:01;;;;;;;7.30;6.60;;;19.80;99.90;;;;;;4982339;28;20531;-80
2021/08/22 01:34:28;;;;;;;6.77;6.27;;;19.70;99.90;;;;;;4982081;28;20160;-80
2021/08/22 01:36:57;;;;;;;6.57;6.07;;;19.70;99.90;;;;;;4980693;28;20169;-80
2021/08/22 01:39:23;;;;;;;7.30;6.70;;;19.80;99.90;;;;;;4979794;28;20197;-80
2021/08/22 01:41:49;;;;;;;6.77;6.27;;;19.80;99.90;;;;;;4962903;28;20187;-80
2021/08/22 01:44:19;;;;;;;7.87;7.07;;;19.80;99.90;;;;;;4979250;28;20231;-80
2021/08/22 01:46:46;;;;;;;7.40;6.80;;;19.80;99.90;;;;;;4980239;28;20255;-79
2021/08/22 01:49:13;;;;;;;9.27;7.43;;;19.70;99.90;;;;;;4979801;28;20204;-81
2021/08/22 01:51:40;;;;;;;6.97;6.37;;;19.70;99.90;;;;;;4962241;28;20242;-80
2021/08/22 01:54:09;;;;;;;7.10;6.40;;;19.70;99.90;;;;;;4980419;28;20179;-80
2021/08/22 01:56:39;;;;;;;7.27;6.73;;;19.80;99.90;;;;;;4980014;28;20164;-80
2021/08/22 01:59:05;;;;;;;7.77;7.07;;;19.80;99.90;;;;;;4962533;28;20200;-80
2021/08/22 02:01:33;;;;;;;8.23;7.50;;;19.80;99.90;;;;;;4962794;28;20231;-80
2021/08/22 02:04:10;;;;;;;12.93;7.30;;;19.90;99.90;;;;;;4979848;28;20172;-80
2021/08/22 02:06:39;;;;;;;8.67;7.97;;;19.70;99.90;;;;;;4982067;28;20171;-80
2021/08/22 02:09:09;;;;;;;7.43;6.83;;;19.80;99.90;;;;;;4980880;28;20702;-80
2021/08/22 02:11:43;;;;;;;8.00;7.40;;;19.70;99.90;;;;;;4981001;28;20223;-80
2021/08/22 02:14:13;;;;;;;7.40;6.80;;;19.70;99.90;;;;;;4963656;28;20265;-80
2021/08/22 02:16:45;;;;;;;7.37;6.67;;;19.60;99.90;;;;;;4980967;28;20165;-80
2021/08/22 02:19:11;;;;;;;7.53;6.83;;;19.70;99.90;;;;;;4981161;28;20602;-81
2021/08/22 02:21:38;;;;;;;7.33;6.67;;;19.60;99.90;;;;;;4980603;28;20183;-80
2021/08/22 02:24:05;;;;;;;7.17;6.57;;;19.50;99.90;;;;;;4963187;28;20180;-80
2021/08/22 02:26:31;;;;;;;7.17;6.40;;;19.60;99.90;;;;;;4980519;28;20177;-81
2021/08/22 02:28:59;;;;;;;7.57;6.97;;;19.70;99.90;;;;;;4980699;28;20278;-81
2021/08/22 02:31:29;;;;;;;8.07;7.37;;;19.60;99.90;;;;;;4963596;28;20615;-80
2021/08/22 02:33:58;;;;;;;8.27;7.57;;;19.50;99.90;;;;;;4981158;28;20208;-80
2021/08/22 02:36:24;;;;;;;7.60;7.00;;;19.40;99.90;;;;;;4981103;28;20168;-80
2021/08/22 02:38:51;;;;;;;8.30;7.50;;;19.40;99.90;;;;;;4963175;28;20668;-80
2021/08/22 02:41:16;;;;;;;8.37;7.63;;;19.50;99.90;;;;;;4965538;28;20194;-80
2021/08/22 02:43:42;;;;;;;8.13;7.33;;;19.50;99.90;;;;;;4963759;28;20561;-80
2021/08/22 02:46:08;;;;;;;8.40;7.67;;;19.50;99.90;;;;;;4963801;28;20193;-80
2021/08/22 02:48:34;;;;;;;8.50;7.80;;;19.60;99.90;;;;;;4981328;28;20212;-80
2021/08/22 02:51:01;;;;;;;8.00;7.30;;;19.70;99.90;;;;;;4981343;28;20197;-80
2021/08/22 02:53:27;;;;;;;8.00;7.30;;;19.70;99.90;;;;;;4963623;28;20239;-81
2021/08/22 02:55:52;;;;;;;8.43;7.60;;;19.80;99.90;;;;;;4963463;28;20172;-80
2021/08/22 02:58:19;;;;;;;8.27;7.63;;;19.80;99.90;;;;;;4980687;28;20184;-80
2021/08/22 03:00:44;;;;;;;8.33;7.53;;;19.70;99.90;;;;;;4980157;28;20648;-80
2021/08/22 03:03:10;;;;;;;8.37;7.67;;;19.70;99.90;;;;;;4963004;28;20227;-81
2021/08/22 03:05:36;;;;;;;8.30;7.50;;;19.70;99.90;;;;;;4980564;28;20254;-81
2021/08/22 03:08:02;;;;;;;8.90;8.20;;;19.70;99.90;;;;;;4962556;28;20196;-81
2021/08/22 03:10:28;;;;;;;8.60;7.90;;;19.70;99.90;;;;;;4980069;28;20192;-80
2021/08/22 03:12:54;;;;;;;9.23;8.43;;;19.60;99.90;;;;;;4979890;28;20218;-80
2021/08/22 03:15:19;;;;;;;9.03;8.07;;;19.60;99.90;;;;;;4962655;28;20318;-80
2021/08/22 03:17:45;;;;;;;8.30;7.60;;;19.60;99.90;;;;;;4979949;28;20203;-80
2021/08/22 03:20:10;;;;;;;8.23;7.63;;;19.60;99.90;;;;;;4962763;28;20246;-81
2021/08/22 03:22:36;;;;;;;8.60;7.70;;;19.70;99.90;;;;;;4980749;28;20682;-80
2021/08/22 03:25:03;;;;;;;8.30;7.17;;;19.70;99.90;;;;;;4980071;28;20687;-81
2021/08/22 03:27:29;;;;;;;7.90;7.20;;;19.70;99.90;;;;;;4963051;28;20183;-81
2021/08/22 03:29:54;;;;;;;8.30;7.47;;;19.70;99.90;;;;;;4979353;28;20208;-81
2021/08/22 03:32:20;;;;;;;8.20;7.13;;;19.80;99.90;;;;;;4980540;28;20546;-81
2021/08/22 03:34:46;;;;;;;8.77;7.60;;;19.70;99.90;;;;;;4979640;28;20179;-80
2021/08/22 03:37:11;;;;;;;8.07;7.37;;;19.70;99.90;;;;;;4979769;28;20172;-81
2021/08/22 03:39:37;;;;;;;7.90;7.30;;;19.70;99.90;;;;;;4961342;28;20201;-80
2021/08/22 03:42:03;;;;;;;7.60;6.80;;;19.80;99.90;;;;;;4962210;28;20180;-80
2021/08/22 03:44:28;;;;;;;7.77;6.97;;;19.80;99.90;;;;;;4960463;28;20177;-80
2021/08/22 03:46:54;;;;;;;7.73;6.97;;;19.80;99.90;;;;;;4978248;28;20173;-80
2021/08/22 03:49:20;;;;;;;6.87;6.33;;;19.70;99.90;;;;;;4977896;28;20691;-80
2021/08/22 03:51:46;;;;;;;6.87;6.17;;;19.60;99.90;;;;;;4979758;28;20165;-80
2021/08/22 03:54:12;;;;;;;7.37;5.63;;;19.70;99.90;;;;;;4980119;28;20219;-80
2021/08/22 03:56:37;;;;;;;6.30;5.80;;;19.70;99.90;;;;;;4981121;28;20179;-80
2021/08/22 03:59:06;;;;;;;5.57;5.07;;;19.80;99.90;;;;;;4962583;28;20291;-79
2021/08/22 04:01:33;;;;;;;7.83;5.40;;;19.80;99.90;;;;;;4962674;28;20180;-80
2021/08/22 04:03:59;;;;;;;5.57;5.07;;;19.70;99.90;;;;;;4979471;28;20180;-80
2021/08/22 04:06:25;;;;;;;5.20;4.70;;;19.60;99.90;;;;;;4961704;28;20177;-80
2021/08/22 04:08:51;;;;;;;5.57;4.77;;;19.60;99.90;;;;;;4960716;28;20722;-80
2021/08/22 04:11:16;;;;;;;5.47;4.90;;;19.70;99.90;;;;;;4978811;28;20173;-80
2021/08/22 04:13:43;;;;;;;5.47;4.97;;;19.70;99.90;;;;;;4979080;28;20173;-80
2021/08/22 04:16:09;;;;;;;5.53;5.03;;;19.70;99.90;;;;;;4978591;28;20284;-80
2021/08/22 04:18:34;;;;;;;5.87;4.40;;;19.60;99.90;;;;;;4978781;28;20228;-81
2021/08/22 04:21:00;;;;;;;5.20;4.80;;;19.60;99.90;;;;;;4978471;28;20230;-80
2021/08/22 04:23:26;;;;;;;5.50;4.70;;;19.60;99.90;;;;;;4978456;28;20220;-80
2021/08/22 04:25:53;;;;;;;5.30;4.90;;;19.60;99.90;;;;;;4961033;28;20180;-80
2021/08/22 04:28:19;;;;;;;5.40;4.93;;;19.50;99.90;;;;;;4978202;28;20258;-80
2021/08/22 04:30:45;;;;;;;4.90;4.53;;;19.50;99.90;;;;;;4979310;28;20574;-80
2021/08/22 04:33:11;;;;;;;5.03;4.60;;;19.60;99.90;;;;;;4978142;28;20176;-80
2021/08/22 04:35:37;;;;;;;5.70;5.10;;;19.60;99.90;;;;;;4978954;28;20187;-80
2021/08/22 04:38:02;;;;;;;6.07;5.17;;;19.60;99.90;;;;;;4978225;28;20303;-80
2021/08/22 04:40:29;;;;;;;5.53;4.90;;;19.60;99.90;;;;;;4976986;28;20200;-80
2021/08/22 04:42:55;;;;;;;5.23;4.73;;;19.50;99.90;;;;;;4977769;28;20180;-80
2021/08/22 04:45:21;;;;;;;5.50;5.00;;;19.50;99.90;;;;;;4977937;28;20204;-80
2021/08/22 04:47:46;;;;;;;5.23;4.73;;;19.40;99.90;;;;;;4978105;28;20279;-80
2021/08/22 04:50:12;;;;;;;5.13;4.50;;;19.20;99.90;;;;;;4978351;28;20538;-80
2021/08/22 04:52:38;;;;;;;5.17;4.77;;;19.20;99.90;;;;;;4976486;28;20655;-80
2021/08/22 04:55:05;;;;;;;5.03;4.60;;;19.20;99.90;;;;;;4978064;28;20224;-80
2021/08/22 04:57:31;;;;;;;5.63;5.13;;;19.30;99.90;;;;;;4977948;28;20251;-80
2021/08/22 04:59:56;;;;;;;5.47;5.07;;;19.30;99.90;;;;;;4977117;28;20200;-80
2021/08/22 05:02:22;;;;;;;5.37;4.87;;;19.20;99.90;;;;;;4977036;28;20183;-80
2021/08/22 05:04:48;;;;;;;5.23;4.77;;;19.20;99.90;;;;;;4978134;28;20203;-80
2021/08/22 05:07:13;;;;;;;5.33;4.90;;;19.30;99.90;;;;;;4976633;28;20176;-80
2021/08/22 05:09:39;;;;;;;5.97;4.37;;;19.30;99.90;;;;;;4977776;28;20212;-81
2021/08/22 05:12:05;;;;;;;5.27;4.77;;;19.30;99.90;;;;;;4978748;28;20169;-80
2021/08/22 05:14:33;;;;;;;5.37;4.87;;;19.30;99.90;;;;;;4978875;28;20702;-80
2021/08/22 05:16:59;;;;;;;5.00;4.60;;;19.30;99.90;;;;;;4978333;28;20172;-80
2021/08/22 05:19:25;;;;;;;8.33;4.47;;;19.20;99.90;;;;;;4977837;28;20683;-80
2021/08/22 05:21:51;;;;;;;4.77;4.20;;;19.30;99.90;;;;;;4978431;28;20172;-80
2021/08/22 05:24:16;;;;;;;5.53;4.90;;;19.30;99.90;;;;;;4978240;28;20644;-80
2021/08/22 05:26:42;;;;;;;5.53;5.03;;;19.30;99.90;;;;;;4977628;28;20177;-80
2021/08/22 05:29:08;;;;;;;5.50;5.00;;;19.30;99.90;;;;;;4979170;28;20219;-80
2021/08/22 05:31:33;;;;;;;5.00;4.60;;;19.20;99.90;;;;;;4979350;28;20176;-78
2021/08/22 05:33:59;;;;;;;4.77;4.33;;;19.30;99.90;;;;;;4979314;28;20188;-80
2021/08/22 05:36:24;;;;;;;5.43;4.97;;;19.30;99.90;;;;;;4978336;28;20656;-80
2021/08/22 05:38:52;;;;;;;5.33;4.60;;;19.30;99.90;;;;;;4978501;28;20204;-80
2021/08/22 05:41:18;;;;;;;5.20;4.70;;;19.30;99.90;;;;;;4978074;28;20177;-80
2021/08/22 05:43:44;;;;;;;5.37;4.87;;;19.20;99.90;;;;;;4977724;28;20183;-80
2021/08/22 05:46:10;;;;;;;5.17;4.67;;;19.20;99.90;;;;;;4976751;28;20180;-80
2021/08/22 05:48:36;;;;;;;4.83;4.47;;;19.20;99.90;;;;;;4979409;28;20212;-81
2021/08/22 05:51:02;;;;;;;6.00;5.07;;;19.10;99.90;;;;;;4979882;28;20647;-81
2021/08/22 05:53:28;;;;;;;5.23;4.50;;;19.10;99.90;;;;;;4980996;28;20211;-80
2021/08/22 05:55:55;;;;;;;5.33;4.93;;;19.10;99.90;;;;;;4983783;28;20199;-81
2021/08/22 05:58:21;;;;;;;5.57;5.07;;;19.20;99.90;;;;;;4984228;28;20234;-81
2021/08/22 06:00:47;;;;;;;5.03;4.60;;;19.30;99.90;;;;;;4984346;28;20244;-80
2021/08/22 06:03:13;;;;;;;5.23;4.83;;;19.30;99.90;;;;;;4983795;28;20187;-81
2021/08/22 06:05:38;;;;;;;5.43;4.60;;;19.20;99.90;;;;;;4983979;28;20173;-81
2021/08/22 06:08:04;;;;;;;5.07;4.67;;;19.10;99.90;;;;;;4983365;28;20308;-81
2021/08/22 06:10:30;;;;;;;6.83;5.07;;;19.10;99.90;;;;;;4982469;28;20228;-81
2021/08/22 06:12:56;;;;;;;5.03;4.40;;;19.20;99.90;;;;;;4984333;28;20523;-81
2021/08/22 06:15:21;;;;;;;5.70;5.20;;;19.20;99.90;;;;;;4984264;28;20193;-80
2021/08/22 06:17:47;;;;;;;6.07;5.07;;;19.20;99.90;;;;;;4983038;28;20552;-80
2021/08/22 06:20:13;;;;;;;5.60;5.13;;;19.20;99.90;;;;;;4983716;28;20196;-81
2021/08/22 06:22:39;;;;;;;4.90;4.43;;;19.10;99.90;;;;;;4984128;28;20179;-81
2021/08/22 06:25:05;;;;;;;5.30;4.80;;;19.20;99.90;;;;;;4983783;28;20247;-83
2021/08/22 06:27:30;;;;;;;5.33;4.93;;;19.30;99.90;;;;;;4982989;28;20211;-82
2021/08/22 06:29:56;;;;;;;5.40;4.90;;;19.40;99.90;;;;;;5058062;23;20228;-84
2021/08/22 06:32:21;;;;;;;4.83;4.37;;;19.50;99.90;;;;;;4989703;28;20669;-81
2021/08/22 06:34:47;;;;;;;4.57;4.17;;;19.60;99.90;;;;;;5000566;28;20653;-81
2021/08/22 06:37:13;;;;;;;5.03;4.63;;;19.60;99.90;;;;;;5002414;28;20171;-81
2021/08/22 06:39:40;;;;;;;5.37;4.97;;;19.60;99.90;;;;;;5002715;28;20196;-78
2021/08/22 06:42:07;;;;;;;5.50;5.00;;;19.70;99.90;;;;;;5002196;28;20167;-81
2021/08/22 06:44:33;;;;;;;5.53;5.03;;;19.70;99.90;;;;;;5001952;28;20590;-80
2021/08/22 06:46:59;;;;;;;5.13;4.70;;;19.70;99.90;;;;;;4999891;28;20199;-80
2021/08/22 06:49:25;;;;;;;5.00;4.60;;;19.50;99.90;;;;;;5000310;28;20212;-81
2021/08/22 06:51:50;;;;;;;4.93;4.53;;;19.60;99.90;;;;;;5001264;28;20225;-79
2021/08/22 06:54:16;;;;;;;4.90;4.50;;;19.60;99.90;;;;;;4999794;28;20259;-79
2021/08/22 06:56:42;;;;;;;5.00;4.60;;;19.60;99.90;;;;;;5000471;28;20535;-79
2021/08/22 06:59:07;;;;;;;5.10;4.60;;;19.60;99.90;;;;;;5000024;28;20175;-79
2021/08/22 07:01:33;;;;;;;5.53;4.97;;;19.50;99.90;;;;;;5000277;28;20180;-78
2021/08/22 07:03:59;;;;;;;5.30;4.60;;;19.50;99.90;;;;;;4999930;28;20548;-79
2021/08/22 07:06:24;;;;;;;4.93;4.50;;;19.40;99.90;;;;;;4995961;28;20658;-78
2021/08/22 07:08:50;;;;;;;5.33;4.40;;;19.40;99.90;;;;;;4997959;28;20680;-78
2021/08/22 07:11:16;;;;;;;5.63;5.07;;;19.40;99.90;;;;;;4997815;28;20611;-78
2021/08/22 07:13:41;;;;;;;5.30;4.90;;;19.40;99.90;;;;;;4997209;28;20234;-79
2021/08/22 07:16:07;;;;;;;5.57;5.07;;;19.50;99.90;;;;;;4997845;28;20160;-80
2021/08/22 07:18:33;;;;;;;5.17;4.67;;;19.50;99.90;;;;;;4996622;28;20181;-80
2021/08/22 07:20:58;;;;;;;5.20;4.80;;;19.40;99.90;;;;;;4998158;28;20241;-80
2021/08/22 07:23:24;;;;;;;5.27;4.87;;;19.40;99.90;;;;;;4998772;28;20176;-80
2021/08/22 07:25:51;;;;;;;4.67;4.33;;;19.50;99.90;;;;;;4996632;28;20187;-80
2021/08/22 07:28:17;;;;;;;5.57;5.17;;;19.60;99.90;;;;;;4997826;28;20192;-79
2021/08/22 07:30:43;;;;;;;5.13;4.63;;;19.70;99.90;;;;;;4997523;28;20200;-79
2021/08/22 07:33:09;;;;;;;5.13;4.60;;;19.70;99.90;;;;;;4996166;28;20167;-79
2021/08/22 07:35:35;;;;;;;5.60;4.90;;;19.60;99.90;;;;;;4996167;28;20235;-80
2021/08/22 07:38:03;;;;;;;5.30;4.90;;;19.70;99.90;;;;;;4994659;28;20583;-79
2021/08/22 07:40:29;;;;;;;5.10;4.70;;;19.70;99.90;;;;;;4981053;28;20202;-80
2021/08/22 07:42:55;;;;;;;6.77;5.37;;;19.60;99.90;;;;;;4997224;28;20187;-80
2021/08/22 07:45:21;;;;;;;5.10;4.60;;;19.70;99.90;;;;;;4997596;28;20321;-80
2021/08/22 07:47:46;;;;;;;5.67;4.87;;;19.80;99.90;;;;;;4979925;28;20172;-80
2021/08/22 07:50:12;;;;;;;5.73;4.67;;;19.80;99.90;;;;;;4980218;28;20200;-80
2021/08/22 07:52:41;;;;;;;5.07;4.67;;;19.80;99.90;;;;;;4980850;28;20168;-80
2021/08/22 07:55:07;;;;;;;5.00;4.40;;;19.80;99.90;;;;;;4998301;28;20211;-80
2021/08/22 07:57:38;;;;;;;5.97;5.27;;;19.90;99.90;;;;;;4981490;28;20226;-80
2021/08/22 08:00:05;;;;;;;4.93;4.53;;;19.90;99.90;;;;;;4997912;28;20187;-80
2021/08/22 08:02:34;;;;;;;4.30;4.00;;;19.90;99.90;;;;;;4980776;28;20183;-80
2021/08/22 08:05:05;;;;;;;5.03;4.63;;;20.00;99.90;;;;;;4980123;28;20717;-80
2021/08/22 08:07:31;;;;;;;5.50;5.00;;;20.10;99.90;;;;;;4998394;28;20167;-80
2021/08/22 08:09:59;;;;;;;4.53;4.13;;;20.00;99.90;;;;;;4997877;28;20204;-81
2021/08/22 08:12:27;;;;;;;4.63;4.23;;;20.10;99.90;;;;;;4981260;28;20178;-80
2021/08/22 08:14:53;;;;;;;4.70;4.30;;;20.10;99.90;;;;;;4998649;28;20187;-80
2021/08/22 08:17:19;;;;;;;5.23;4.83;;;20.20;99.90;;;;;;4981740;28;20174;-81
2021/08/22 08:19:55;;;;;;;4.87;4.47;;;20.20;99.90;;;;;;4998506;28;20623;-81
2021/08/22 08:22:22;;;;;;;5.00;4.60;;;20.30;99.90;;;;;;4980401;28;20262;-80
2021/08/22 08:24:47;;;;;;;4.93;4.30;;;20.40;99.90;;;;;;4998920;28;20524;-80
2021/08/22 08:27:13;;;;;;;6.33;4.67;;;20.50;99.90;;;;;;4998789;28;20677;-81
2021/08/22 08:29:39;;;;;;;4.73;4.33;;;20.50;99.90;;;;;;4997633;28;20234;-80
2021/08/22 08:32:08;;;;;;;4.77;4.00;;;20.60;99.90;;;;;;4997493;28;20168;-80
2021/08/22 08:34:34;;;;;;;4.47;4.10;;;20.60;99.90;;;;;;4981197;28;20168;-80
2021/08/22 08:37:00;;;;;;;4.33;4.03;;;20.60;99.90;;;;;;4980817;28;20186;-81
2021/08/22 08:39:29;;;;;;;4.70;4.30;;;20.50;99.90;;;;;;4989454;28;20270;-80
2021/08/22 08:42:14;;;;;;;4.87;4.47;;;20.50;99.90;;;;;;4995355;28;20176;-81
2021/08/22 08:44:41;;;;;;;4.20;3.90;;;20.60;99.90;;;;;;4995821;28;20164;-80
2021/08/22 08:47:08;;;;;;;4.77;4.10;;;20.60;99.90;;;;;;4996836;28;20520;-81
2021/08/22 08:49:55;;;;;;;4.90;4.50;;;20.70;99.90;;;;;;4998535;28;20207;-81
2021/08/22 08:52:45;;;;;;;4.53;4.13;;;20.60;99.90;;;;;;4997587;28;20179;-81
2021/08/22 08:55:36;;;;;;;4.10;3.80;;;20.60;99.90;;;;;;4997824;28;20168;-80
2021/08/22 08:58:02;;;;;;;4.60;4.20;;;20.60;99.90;;;;;;4998623;28;20171;-80
2021/08/22 09:00:36;;;;;;;4.60;4.20;;;20.60;99.90;;;;;;4997984;28;20280;-81
2021/08/22 09:03:20;;;;;;;4.40;4.00;;;20.60;99.90;;;;;;4998452;28;20175;-81
2021/08/22 09:06:16;;;;;;;4.80;4.40;;;20.60;99.90;;;;;;4999125;28;20186;-80
2021/08/22 09:09:12;;;;;;;4.77;4.37;;;20.70;99.90;;;;;;4996679;28;20196;-80
2021/08/22 09:12:17;;;;;;;4.50;4.10;;;20.60;99.90;;;;;;4996853;28;20152;-81
2021/08/22 09:15:24;;;;;;;4.33;4.00;;;20.70;99.90;;;;;;4995544;28;20168;-81
2021/08/22 09:18:24;;;;;;;4.60;4.20;;;20.80;99.90;;;;;;4976934;28;20219;-80
2021/08/22 09:21:08;;;;;;;5.20;4.70;;;20.80;99.90;;;;;;4996942;28;20202;-80
2021/08/22 09:24:10;;;;;;;5.03;4.53;;;20.80;99.90;;;;;;4997758;28;20594;-80
2021/08/22 09:26:39;;;;;;;4.67;4.27;;;20.80;99.90;;;;;;4996519;28;20156;-80
2021/08/22 09:29:30;;;;;;;4.20;3.90;;;20.80;99.90;;;;;;4998640;28;20219;-80
2021/08/22 09:32:33;;;;;;;4.20;3.80;;;20.90;99.90;;;;;;4998538;28;20180;-80
2021/08/22 09:35:14;;;;;;;4.40;4.00;;;20.80;99.90;;;;;;4998613;28;20178;-80
2021/08/22 09:38:18;;;;;;;3.93;3.53;;;20.80;99.90;;;;;;4999567;28;20172;-81
2021/08/22 09:41:01;;;;;;;4.30;4.00;;;20.80;99.90;;;;;;4962268;28;20200;-80
2021/08/22 09:44:04;;;;;;;4.20;3.80;;;20.80;99.90;;;;;;4962120;28;20172;-80
2021/08/22 09:46:48;;;;;;;4.93;4.30;;;20.90;99.90;;;;;;4996138;28;20184;-80
2021/08/22 09:49:24;;;;;;;4.87;4.40;;;21.00;99.90;;;;;;4999650;28;20238;-80
2021/08/22 09:52:24;;;;;;;4.60;4.20;;;21.10;99.90;;;;;;4999863;28;20175;-79
2021/08/22 09:55:25;;;;;;;4.73;4.10;;;21.10;99.90;;;;;;4999675;28;20645;-81
2021/08/22 09:58:28;;;;;;;4.60;4.20;;;21.10;99.90;;;;;;4999020;28;20626;-81
2021/08/22 10:01:23;;;;;;;4.50;4.20;;;21.10;99.90;;;;;;4998908;28;20191;-81
2021/08/22 10:04:10;;;;;;;4.30;3.70;;;21.20;99.90;;;;;;4999932;28;20168;-80
2021/08/22 10:07:00;;;;;;;4.60;4.10;;;21.30;99.90;;;;;;5001207;28;20685;-80
2021/08/22 10:09:32;;;;;;;4.27;3.97;;;21.20;99.90;;;;;;4998623;28;20242;-80
2021/08/22 10:12:02;;;;;;;4.87;4.47;;;21.10;99.90;;;;;;4999640;28;20164;-80
2021/08/22 10:14:29;;;;;;;4.93;4.23;;;21.10;99.90;;;;;;4997998;28;20553;-80
2021/08/22 10:16:56;;;;;;;4.37;3.97;;;21.20;99.90;;;;;;5000047;28;20187;-81
2021/08/22 10:19:23;;;;;;;5.37;3.80;;;21.30;99.90;;;;;;4999885;28;20206;-80
2021/08/22 10:22:11;;;;;;;4.20;3.90;;;21.40;99.90;;;;;;5000019;28;20178;-80
2021/08/22 10:24:37;;;;;;;4.63;3.90;;;21.40;99.90;;;;;;4999473;28;20172;-81
2021/08/22 10:27:09;;;;;;;4.27;3.87;;;21.50;99.90;;;;;;4999639;28;20519;-81
2021/08/22 10:29:59;;;;;;;4.33;3.90;;;21.70;99.90;;;;;;4997517;28;20279;-81
2021/08/22 10:32:25;;;;;;;4.43;4.07;;;21.80;99.90;;;;;;4998884;28;20164;-81
2021/08/22 10:35:10;;;;;;;4.03;3.73;;;21.80;99.90;;;;;;4998765;28;20196;-81
2021/08/22 10:37:37;;;;;;;4.30;3.90;;;21.90;99.90;;;;;;4979223;28;20678;-81
2021/08/22 10:40:21;;;;;;;4.40;4.00;;;22.00;99.90;;;;;;4979207;28;20196;-81
2021/08/22 10:42:47;;;;;;;3.90;3.60;;;22.10;99.90;;;;;;4962001;28;20179;-81
2021/08/22 10:45:56;;;;;;;4.60;3.90;;;22.20;99.90;;;;;;4980181;28;20172;-81
2021/08/22 10:48:24;;;;;;;3.47;3.17;;;22.20;99.90;;;;;;4887277;29;20203;-81
2021/08/22 10:51:07;;;;;;;3.50;3.20;;;22.30;99.90;;;;;;4901791;29;20199;-81
2021/08/22 10:53:37;;;;;;;3.93;3.20;;;22.30;99.90;;;;;;4934252;28;20184;-81
2021/08/22 10:56:21;;;;;;;4.23;3.67;;;22.30;99.90;;;;;;4979974;28;20215;-81
2021/08/22 10:58:56;;;;;;;3.93;3.50;;;22.40;99.90;;;;;;4979611;28;20172;-81
2021/08/22 11:01:22;;;;;;;3.90;3.60;;;22.40;99.90;;;;;;4979652;28;20168;-81
2021/08/22 11:04:07;;;;;;;3.77;3.47;;;22.40;99.90;;;;;;4963231;28;20177;-81
2021/08/22 11:06:52;;;;;;;3.40;3.10;;;22.30;99.90;;;;;;4980626;28;20168;-81
2021/08/22 11:09:45;;;;;;;3.40;3.10;;;22.20;99.90;;;;;;4963149;28;20215;-81
2021/08/22 11:12:25;;;;;;;3.57;3.27;;;22.10;99.90;;;;;;4980405;28;20227;-81
2021/08/22 11:14:51;;;;;;;4.40;3.50;;;21.90;99.90;;;;;;4980012;28;20642;-80
2021/08/22 11:17:16;;;;;;;3.77;3.30;;;21.80;99.90;;;;;;4963020;28;20172;-80
2021/08/22 11:19:42;;;;;;;3.40;3.13;;;21.70;99.90;;;;;;4962328;28;20606;-81
2021/08/22 11:22:30;;;;;;;3.33;3.03;;;21.70;99.90;;;;;;4962048;28;20188;-81
2021/08/22 11:24:57;;;;;;;3.47;3.27;;;21.60;99.90;;;;;;4980833;28;20192;-81
2021/08/22 11:27:28;;;;;;;3.90;3.60;;;21.70;99.90;;;;;;4961266;28;20191;-81
2021/08/22 11:29:59;;;;;;;3.70;3.10;;;21.80;99.90;;;;;;4962313;28;20298;-81
2021/08/22 11:32:27;;;;;;;3.80;3.50;;;21.80;99.90;;;;;;4961805;28;20177;-81
2021/08/22 11:34:53;;;;;;;3.57;3.37;;;21.70;99.90;;;;;;4978760;28;20592;-81
2021/08/22 11:37:22;;;;;;;3.90;3.47;;;21.70;99.90;;;;;;4981194;28;20211;-82
2021/08/22 11:39:48;;;;;;;3.70;3.40;;;21.80;99.90;;;;;;4999490;28;20188;-80
2021/08/22 11:42:20;;;;;;;3.80;3.50;;;21.80;99.90;;;;;;4996617;28;20233;-81
2021/08/22 11:44:45;;;;;;;4.00;3.70;;;21.70;99.90;;;;;;4996637;28;20637;-81
2021/08/22 11:47:11;;;;;;;4.07;3.70;;;21.60;99.90;;;;;;4997850;28;20179;-81
2021/08/22 11:49:37;;;;;;;3.70;3.40;;;21.70;99.90;;;;;;4996506;28;20215;-81
2021/08/22 11:52:04;;;;;;;3.63;3.33;;;21.70;99.90;;;;;;4998915;28;20172;-81
2021/08/22 11:54:33;;;;;;;3.87;3.57;;;21.60;99.90;;;;;;4998376;28;20183;-81
2021/08/22 11:57:19;;;;;;;4.40;4.00;;;21.70;99.90;;;;;;4997971;28;20514;-81
2021/08/22 11:59:57;;;;;;;3.93;3.63;;;21.60;99.90;;;;;;4998618;28;20287;-81
2021/08/22 12:02:25;;;;;;;4.00;3.70;;;21.60;99.90;;;;;;4997848;28;20524;-79
2021/08/22 12:05:12;;;;;;;3.63;3.33;;;21.60;99.90;;;;;;4995987;28;20184;-80
2021/08/22 12:07:38;;;;;;;4.17;3.83;;;21.60;99.90;;;;;;4998064;28;20651;-81
2021/08/22 12:10:05;;;;;;;4.20;3.80;;;21.50;99.90;;;;;;4997644;28;20266;-79
2021/08/22 12:12:39;;;;;;;4.20;3.73;;;21.50;99.90;;;;;;4996170;28;20230;-79
2021/08/22 12:15:09;;;;;;;3.93;3.53;;;21.40;99.90;;;;;;4998731;28;20567;-79
2021/08/22 12:17:35;;;;;;;3.80;3.50;;;21.50;99.90;;;;;;4997615;28;20199;-82
2021/08/22 12:20:21;;;;;;;4.00;3.60;;;21.40;99.90;;;;;;4997319;28;20196;-79
2021/08/22 12:23:08;;;;;;;4.13;3.77;;;21.60;99.90;;;;;;4995880;28;20176;-80
2021/08/22 12:25:34;;;;;;;3.97;3.67;;;21.60;99.90;;;;;;4997156;28;20686;-79
2021/08/22 12:28:27;;;;;;;4.40;4.00;;;21.60;99.90;;;;;;4997724;28;20180;-81
2021/08/22 12:31:04;;;;;;;4.40;3.97;;;21.60;99.90;;;;;;5025684;23;20289;-81
2021/08/22 12:33:38;;;;;;;4.20;3.80;;;21.70;99.90;;;;;;4983413;28;20175;-81
2021/08/22 12:36:13;;;;;;;4.20;3.80;;;21.70;99.90;;;;;;5001952;28;20187;-81
2021/08/22 12:38:40;;;;;;;4.37;4.00;;;21.70;99.90;;;;;;4999939;28;20568;-81
2021/08/22 12:41:42;;;;;;;4.40;4.00;;;21.80;99.90;;;;;;5001854;28;20188;-80
2021/08/22 12:44:11;;;;;;;4.20;3.80;;;21.80;99.90;;;;;;5002979;28;20234;-81
2021/08/22 12:47:00;;;;;;;3.83;3.50;;;21.90;99.90;;;;;;5002584;28;20259;-79
2021/08/22 12:49:37;;;;;;;3.90;3.60;;;22.00;99.90;;;;;;5002121;28;20179;-81
2021/08/22 12:52:14;;;;;;;4.10;3.80;;;22.00;99.90;;;;;;5002266;28;20151;-82
2021/08/22 12:54:39;;;;;;;5.33;3.87;;;22.00;99.90;;;;;;4982775;28;20179;-81
2021/08/22 12:57:08;;;;;;;4.10;3.63;;;22.00;99.90;;;;;;5000554;28;20168;-81
2021/08/22 12:59:34;;;;;;;3.60;3.40;;;22.00;99.90;;;;;;5002675;28;20172;-81
2021/08/22 13:02:00;;;;;;;3.60;3.30;;;22.00;99.90;;;;;;5001505;28;20206;-79
2021/08/22 13:04:27;;;;;;;4.70;4.10;;;22.00;99.90;;;;;;5004541;28;20179;-81